Time;durP1;ratioP1;P1;durP2;ratioP2;P2;SDS_P1;SDS_P2;PMS_P1;PMS_P2;Temp;Humidity;BMP_temperature;BMP_pressure;BME280_temperature;BME280_humidity;BME280_pressure;Samples;Min_cycle;Max_cycle;Signal;HPM_P1;HPM_P2
2022/07/27 00:01:05;;;;;;;0.90;0.90;;;;;;;24.36;43.67;100324.94;5093757;28;20439;-74
2022/07/27 00:03:30;;;;;;;1.87;1.30;;;;;;;24.30;44.05;100325.47;5075616;28;20390;-74
2022/07/27 00:05:55;;;;;;;2.30;0.80;;;;;;;24.26;43.80;100331.69;5088640;28;20421;-73
2022/07/27 00:08:22;;;;;;;1.00;1.00;;;;;;;24.34;43.80;100341.06;5091483;28;20394;-74
2022/07/27 00:10:48;;;;;;;3.70;1.40;;;;;;;24.38;43.91;100344.78;5093579;28;20481;-73
2022/07/27 00:13:13;;;;;;;3.20;1.20;;;;;;;24.39;43.77;100337.28;5091033;28;20469;-74
2022/07/27 00:15:39;;;;;;;2.30;1.27;;;;;;;24.39;43.75;100342.81;5093661;28;20386;-74
2022/07/27 00:18:04;;;;;;;2.20;1.17;;;;;;;24.31;44.17;100335.38;5084752;28;20415;-74
2022/07/27 00:20:31;;;;;;;5.03;1.20;;;;;;;24.21;44.45;100331.88;5093440;28;20386;-73
2022/07/27 00:22:57;;;;;;;3.35;1.23;;;;;;;24.13;44.67;100335.56;5083735;28;20394;-73
2022/07/27 00:25:25;;;;;;;2.88;1.10;;;;;;;24.16;44.64;100328.53;5087269;28;20405;-73
2022/07/27 00:27:51;;;;;;;3.75;1.20;;;;;;;24.19;44.83;100331.44;5083596;28;20866;-73
2022/07/27 00:30:16;;;;;;;1.20;1.20;;;;;;;24.18;44.60;100329.78;5066373;28;20455;-73
2022/07/27 00:32:42;;;;;;;2.33;1.15;;;;;;;24.15;44.50;100336.00;5075252;28;20389;-73
2022/07/27 00:35:08;;;;;;;1.13;1.02;;;;;;;24.20;44.35;100335.78;5089672;28;20390;-74
2022/07/27 00:37:33;;;;;;;2.90;1.20;;;;;;;24.25;44.47;100341.13;5104035;28;20471;-74
2022/07/27 00:39:59;;;;;;;2.67;1.35;;;;;;;24.27;44.37;100336.06;5085981;28;20986;-74
2022/07/27 00:42:27;;;;;;;1.83;1.30;;;;;;;24.27;44.29;100343.56;5070273;28;20412;-74
2022/07/27 00:44:54;;;;;;;4.65;0.95;;;;;;;24.24;44.62;100342.28;5084282;28;20477;-74
2022/07/27 00:47:20;;;;;;;1.50;0.90;;;;;;;24.18;44.95;100340.06;5078591;28;20391;-74
2022/07/27 00:49:46;;;;;;;1.63;1.23;;;;;;;24.13;45.15;100337.50;5090957;28;20387;-74
2022/07/27 00:52:12;;;;;;;1.20;1.20;;;;;;;24.12;44.87;100335.88;5084495;28;20964;-74
2022/07/27 00:54:39;;;;;;;2.55;1.30;;;;;;;24.09;45.18;100339.28;5083107;28;20385;-74
2022/07/27 00:57:04;;;;;;;1.52;1.30;;;;;;;24.06;45.08;100332.47;5092189;28;20414;-74
2022/07/27 00:59:30;;;;;;;1.53;0.80;;;;;;;24.03;45.29;100340.66;5092087;28;20387;-74
2022/07/27 01:01:56;;;;;;;1.35;1.25;;;;;;;23.94;45.84;100335.16;5068472;28;20498;-73
2022/07/27 01:04:21;;;;;;;0.93;0.70;;;;;;;24.03;45.98;100330.38;5073979;28;20426;-74
2022/07/27 01:06:46;;;;;;;1.07;0.93;;;;;;;24.06;45.64;100332.47;5074477;28;20418;-74
2022/07/27 01:11:57;;;;;;;1.67;0.80;;;;;;;24.03;45.64;100332.34;5088576;28;20462;-73
2022/07/27 01:14:23;;;;;;;2.35;1.42;;;;;;;24.02;46.02;100331.53;5083845;28;20381;-73
2022/07/27 01:16:50;;;;;;;2.30;0.77;;;;;;;24.01;45.94;100329.91;5091980;28;20459;-73
2022/07/27 01:19:16;;;;;;;1.20;0.90;;;;;;;24.00;45.92;100330.25;5091670;28;20445;-74
2022/07/27 01:21:41;;;;;;;0.82;0.82;;;;;;;24.00;46.06;100328.28;5078523;28;20500;-74
2022/07/27 01:24:07;;;;;;;0.90;0.90;;;;;;;23.97;46.15;100326.19;5081273;28;20417;-73
2022/07/27 01:26:34;;;;;;;2.70;0.90;;;;;;;23.90;46.30;100323.16;5092092;28;20769;-74
2022/07/27 01:29:00;;;;;;;2.35;0.80;;;;;;;23.88;46.44;100317.13;5091472;28;20398;-74
2022/07/27 01:31:26;;;;;;;0.70;0.65;;;;;;;23.90;46.41;100322.34;5065846;28;20420;-74
2022/07/27 01:33:51;;;;;;;3.38;0.65;;;;;;;23.83;46.57;100314.56;5081692;28;20427;-74
2022/07/27 01:36:17;;;;;;;1.47;0.70;;;;;;;23.75;46.80;100324.56;5091675;28;20426;-74
2022/07/27 01:38:43;;;;;;;1.13;0.80;;;;;;;23.75;46.88;100324.56;5076125;28;20417;-74
2022/07/27 01:41:08;;;;;;;1.02;0.85;;;;;;;23.69;46.71;100320.38;5087630;28;20480;-74
2022/07/27 01:43:33;;;;;;;0.60;0.60;;;;;;;23.67;46.76;100328.19;5072722;28;20388;-74
2022/07/27 01:45:59;;;;;;;1.90;0.80;;;;;;;23.65;46.68;100324.13;5082761;28;20379;-74
2022/07/27 01:48:25;;;;;;;1.00;0.60;;;;;;;23.65;46.62;100313.88;5091758;28;20374;-74
2022/07/27 01:50:51;;;;;;;1.80;1.17;;;;;;;23.58;46.72;100313.59;5089952;28;20934;-73
2022/07/27 01:53:17;;;;;;;0.98;0.88;;;;;;;23.56;46.50;100321.41;5072212;28;20400;-74
2022/07/27 01:55:42;;;;;;;1.33;0.98;;;;;;;23.51;46.62;100316.06;5083018;28;20374;-74
2022/07/27 01:58:08;;;;;;;1.75;0.80;;;;;;;23.57;46.81;100311.19;5091462;28;20404;-74
2022/07/27 02:00:34;;;;;;;1.70;0.70;;;;;;;23.60;46.61;100314.09;5072408;28;20395;-74
2022/07/27 02:03:01;;;;;;;0.73;0.70;;;;;;;23.62;46.39;100306.25;5078355;28;20414;-74
2022/07/27 02:05:26;;;;;;;1.33;0.70;;;;;;;23.58;46.40;100304.47;5091382;28;20727;-74
2022/07/27 02:07:51;;;;;;;1.30;0.73;;;;;;;23.45;46.73;100302.75;5090945;28;20385;-73
2022/07/27 02:10:17;;;;;;;0.80;0.70;;;;;;;23.44;46.82;100298.41;5090347;28;20394;-74
2022/07/27 02:12:43;;;;;;;1.00;0.60;;;;;;;23.43;46.98;100292.06;5078593;28;20416;-73
2022/07/27 02:15:14;;;;;;;0.70;0.70;;;;;;;23.39;46.86;100299.34;5091402;28;20401;-73
2022/07/27 02:17:40;;;;;;;0.70;0.68;;;;;;;23.37;46.97;100290.59;5090875;28;20461;-73
2022/07/27 02:20:07;;;;;;;1.13;0.60;;;;;;;23.35;47.12;100292.09;5090326;28;20390;-74
2022/07/27 02:22:32;;;;;;;0.60;0.60;;;;;;;23.33;47.20;100286.88;5055597;28;20441;-74
2022/07/27 02:24:58;;;;;;;0.90;0.90;;;;;;;23.35;46.96;100287.34;5091228;28;20405;-74
2022/07/27 02:27:24;;;;;;;1.20;1.00;;;;;;;23.35;46.66;100286.56;5091147;28;20739;-74
2022/07/27 02:29:49;;;;;;;1.48;0.50;;;;;;;23.33;46.80;100288.81;5071730;28;20420;-74
2022/07/27 02:32:14;;;;;;;1.67;0.60;;;;;;;23.31;46.86;100291.94;5073023;28;20386;-73
2022/07/27 02:34:40;;;;;;;0.70;0.70;;;;;;;23.28;47.05;100281.53;5091132;28;20378;-74
2022/07/27 02:37:05;;;;;;;0.80;0.80;;;;;;;23.25;46.93;100291.28;5090253;28;20431;-74
2022/07/27 02:39:30;;;;;;;0.70;0.70;;;;;;;23.07;47.09;100289.78;5090034;28;20390;-74
2022/07/27 02:41:55;;;;;;;0.90;0.63;;;;;;;23.09;47.32;100294.94;5071399;28;20760;-74
2022/07/27 02:44:21;;;;;;;1.50;0.77;;;;;;;23.11;46.99;100290.75;5091146;28;20385;-73
2022/07/27 02:46:46;;;;;;;1.20;0.70;;;;;;;23.07;47.12;100292.53;5084951;28;20737;-74
2022/07/27 02:49:11;;;;;;;0.57;0.57;;;;;;;23.08;47.06;100290.59;5072787;28;20795;-74
2022/07/27 02:51:37;;;;;;;1.70;0.70;;;;;;;23.10;47.14;100296.59;5074290;28;20411;-74
2022/07/27 02:54:02;;;;;;;0.70;0.67;;;;;;;23.11;47.13;100295.44;5091029;28;20393;-74
2022/07/27 02:56:28;;;;;;;1.70;0.70;;;;;;;23.06;46.98;100301.16;5090750;28;20488;-74
2022/07/27 02:58:54;;;;;;;2.10;0.83;;;;;;;23.05;47.34;100300.31;5088571;28;20382;-74
2022/07/27 03:01:20;;;;;;;1.15;0.65;;;;;;;23.05;47.10;100294.81;5076779;28;20399;-73
2022/07/27 03:03:46;;;;;;;2.33;0.85;;;;;;;23.07;46.92;100294.47;5079578;28;20405;-73
2022/07/27 03:06:11;;;;;;;0.70;0.60;;;;;;;23.06;47.18;100298.38;5072625;28;20394;-73
2022/07/27 03:08:37;;;;;;;1.30;0.60;;;;;;;23.03;47.12;100299.88;5090799;28;20869;-74
2022/07/27 03:11:02;;;;;;;2.97;0.77;;;;;;;23.02;47.25;100300.22;5078738;28;20403;-73
2022/07/27 03:13:27;;;;;;;0.70;0.70;;;;;;;22.97;47.70;100295.66;5090668;28;20400;-73
2022/07/27 03:15:53;;;;;;;0.50;0.50;;;;;;;22.95;47.41;100295.19;5090608;28;20392;-74
2022/07/27 03:18:19;;;;;;;0.70;0.60;;;;;;;22.99;47.27;100300.84;5090360;28;20404;-73
2022/07/27 03:20:44;;;;;;;1.50;0.73;;;;;;;23.02;47.34;100291.91;5069924;28;20418;-74
2022/07/27 03:23:10;;;;;;;1.17;0.70;;;;;;;22.99;47.32;100301.66;5090821;28;20927;-74
2022/07/27 03:25:35;;;;;;;0.60;0.60;;;;;;;22.98;47.27;100302.81;5082268;28;20396;-73
2022/07/27 03:28:00;;;;;;;0.90;0.90;;;;;;;22.96;47.51;100302.31;5079716;28;20879;-74
2022/07/27 03:30:26;;;;;;;0.90;0.60;;;;;;;22.91;47.44;100294.22;5087808;28;20396;-73
2022/07/27 03:32:51;;;;;;;1.63;0.70;;;;;;;22.83;47.63;100306.09;5091343;28;20725;-74
2022/07/27 03:35:16;;;;;;;0.83;0.83;;;;;;;22.86;47.78;100308.22;5086103;28;20457;-73
2022/07/27 03:37:42;;;;;;;1.23;0.70;;;;;;;;;;5080291;28;20765;-74
2022/07/27 03:40:09;;;;;;;2.23;0.70;;;;;;;22.91;47.52;100296.19;5082159;28;20747;-74
2022/07/27 03:42:34;;;;;;;1.08;0.68;;;;;;;22.87;47.81;100300.75;5073358;28;20390;-73
2022/07/27 03:44:59;;;;;;;0.70;0.70;;;;;;;22.90;47.44;100306.41;5094229;28;20385;-74
2022/07/27 03:47:24;;;;;;;0.70;0.70;;;;;;;22.89;47.38;100310.31;5091298;28;20753;-74
2022/07/27 03:49:51;;;;;;;0.70;0.70;;;;;;;22.81;47.78;100307.59;5092809;28;20405;-74
2022/07/27 03:52:17;;;;;;;1.30;0.65;;;;;;;22.75;47.70;100312.50;5089724;28;20421;-74
2022/07/27 03:54:42;;;;;;;1.90;0.77;;;;;;;22.83;47.67;100316.34;5073954;28;20436;-74
2022/07/27 03:57:07;;;;;;;0.80;0.60;;;;;;;22.86;47.70;100312.91;5075788;28;20417;-73
2022/07/27 03:59:32;;;;;;;1.70;0.80;;;;;;;22.85;47.50;100308.56;5065832;28;20390;-74
2022/07/27 04:01:58;;;;;;;2.20;0.70;;;;;;;22.87;47.70;100307.06;5069498;28;20456;-73
2022/07/27 04:04:23;;;;;;;1.20;0.73;;;;;;;22.90;47.49;100305.59;5072630;28;20430;-74
2022/07/27 04:06:48;;;;;;;1.50;1.10;;;;;;;22.89;47.66;100307.53;5079189;28;20476;-74
2022/07/27 04:09:15;;;;;;;0.70;0.70;;;;;;;22.93;47.38;100302.16;5081870;28;20861;-74
2022/07/27 04:11:42;;;;;;;2.60;0.90;;;;;;;22.93;47.42;100308.53;5089634;28;20868;-74
2022/07/27 04:14:07;;;;;;;1.17;1.08;;;;;;;22.94;47.50;100309.34;5063257;28;20791;-74
2022/07/27 04:16:32;;;;;;;1.23;0.80;;;;;;;22.90;47.70;100306.41;5093471;28;20434;-73
2022/07/27 04:18:57;;;;;;;2.30;0.90;;;;;;;22.87;47.61;100307.06;5090935;28;20432;-74
2022/07/27 04:21:23;;;;;;;2.50;0.80;;;;;;;22.87;47.76;100309.03;5079234;28;20757;-74
2022/07/27 04:23:48;;;;;;;0.90;0.70;;;;;;;22.79;47.90;100318.97;5075040;28;20507;-74
2022/07/27 04:26:14;;;;;;;2.90;0.60;;;;;;;22.81;47.65;100313.13;5060218;28;20498;-75
2022/07/27 04:28:40;;;;;;;1.13;0.55;;;;;;;22.85;47.59;100320.44;5069704;28;20955;-74
2022/07/27 04:31:05;;;;;;;2.60;0.60;;;;;;;22.86;47.61;100324.78;5073973;28;20407;-74
2022/07/27 04:33:30;;;;;;;0.53;0.50;;;;;;;22.90;47.76;100309.19;5069636;28;20466;-74
2022/07/27 04:35:55;;;;;;;1.13;0.73;;;;;;;22.91;47.60;100316.34;5071115;28;20770;-74
2022/07/27 04:38:21;;;;;;;1.10;0.70;;;;;;;22.93;47.23;100308.53;5069771;28;20411;-74
2022/07/27 04:40:46;;;;;;;1.07;0.70;;;;;;;22.93;47.55;100313.22;5069415;28;20413;-74
2022/07/27 04:43:11;;;;;;;0.70;0.70;;;;;;;22.92;47.41;100317.94;5071629;28;20426;-74
2022/07/27 04:45:37;;;;;;;0.67;0.67;;;;;;;22.92;47.68;100322.69;5070754;28;20460;-75
2022/07/27 04:48:07;;;;;;;0.73;0.50;;;;;;;22.83;47.66;100319.09;5071482;28;20402;-74
2022/07/27 04:50:38;;;;;;;2.47;1.00;;;;;;;22.67;48.22;100321.59;5070146;28;20493;-74
2022/07/27 04:53:03;;;;;;;2.95;0.65;;;;;;;22.64;48.24;100313.94;5071812;28;20793;-74
2022/07/27 04:55:28;;;;;;;1.57;0.70;;;;;;;22.73;48.25;100326.63;5071878;28;20426;-74
2022/07/27 04:57:53;;;;;;;2.93;0.70;;;;;;;22.77;48.06;100318.47;5054412;28;20434;-73
2022/07/27 05:00:19;;;;;;;0.60;0.60;;;;;;;22.75;48.06;100327.09;5068071;28;20487;-73
2022/07/27 05:02:44;;;;;;;2.20;0.50;;;;;;;22.76;48.23;100322.38;5070440;28;20492;-73
2022/07/27 05:05:09;;;;;;;1.97;0.67;;;;;;;22.80;48.38;100328.06;5068941;28;20878;-73
2022/07/27 05:07:35;;;;;;;2.63;0.60;;;;;;;22.79;48.39;100324.47;5077101;28;20406;-73
2022/07/27 05:10:00;;;;;;;0.75;0.70;;;;;;;22.77;48.33;100331.47;5082880;28;20404;-73
2022/07/27 05:12:26;;;;;;;1.80;0.80;;;;;;;22.74;48.62;100338.47;5075140;28;20435;-73
2022/07/27 05:14:51;;;;;;;1.90;0.60;;;;;;;22.73;48.56;100337.66;5076842;28;20411;-73
2022/07/27 05:17:16;;;;;;;3.10;0.40;;;;;;;22.72;48.46;100338.78;5068837;28;20445;-73
2022/07/27 05:19:41;;;;;;;2.10;0.60;;;;;;;22.69;48.49;100336.69;5072316;28;20751;-73
2022/07/27 05:22:08;;;;;;;0.97;0.77;;;;;;;22.66;48.82;100336.53;5070787;28;20407;-73
2022/07/27 05:24:33;;;;;;;1.40;0.50;;;;;;;22.61;49.00;100342.22;5065827;28;20407;-73
2022/07/27 05:26:58;;;;;;;2.50;0.50;;;;;;;22.56;49.21;100345.94;5066692;28;20402;-73
2022/07/27 05:29:24;;;;;;;0.97;0.50;;;;;;;22.61;48.62;100347.75;5097235;28;20399;-73
2022/07/27 05:31:49;;;;;;;0.50;0.50;;;;;;;22.56;48.99;100342.38;5079496;28;20394;-74
2022/07/27 05:34:15;;;;;;;0.57;0.57;;;;;;;22.52;49.08;100344.19;5070719;28;20407;-75
2022/07/27 05:36:40;;;;;;;0.40;0.40;;;;;;;22.44;49.31;100343.06;5058293;28;20775;-73
2022/07/27 05:39:05;;;;;;;1.90;0.50;;;;;;;22.41;49.50;100348.41;5050994;28;20408;-73
2022/07/27 05:41:31;;;;;;;2.10;0.80;;;;;;;22.38;49.67;100341.59;5063095;28;20784;-74
2022/07/27 05:43:56;;;;;;;1.40;0.60;;;;;;;22.45;49.45;100346.63;5061834;28;20411;-73
2022/07/27 05:46:22;;;;;;;0.63;0.60;;;;;;;22.45;49.51;100349.38;5061267;28;20407;-73
2022/07/27 05:48:48;;;;;;;0.50;0.50;;;;;;;22.39;49.73;100339.66;5065531;28;20406;-73
2022/07/27 05:51:13;;;;;;;1.50;0.60;;;;;;;22.45;49.68;100338.34;5063494;28;21189;-73
2022/07/27 05:53:38;;;;;;;1.08;0.52;;;;;;;22.49;49.74;100348.38;5074907;28;20407;-73
2022/07/27 05:56:04;;;;;;;2.10;0.30;;;;;;;22.55;49.53;100347.09;5062722;28;20423;-73
2022/07/27 05:58:29;;;;;;;2.00;0.80;;;;;;;22.60;49.65;100354.41;5058133;28;20515;-73
2022/07/27 06:00:55;;;;;;;0.60;0.60;;;;;;;22.66;49.46;100353.94;5061858;28;20907;-73
2022/07/27 06:03:21;;;;;;;2.13;0.70;;;;;;;22.72;49.38;100363.66;5077892;28;20779;-73
2022/07/27 06:05:47;;;;;;;1.33;0.40;;;;;;;22.83;49.23;100361.38;5061637;28;20407;-73
2022/07/27 06:08:12;;;;;;;2.20;0.80;;;;;;;22.87;49.10;100369.81;5063027;28;20795;-73
2022/07/27 06:10:39;;;;;;;1.90;0.70;;;;;;;22.84;49.16;100365.75;5060885;28;20407;-74
2022/07/27 06:13:07;;;;;;;1.00;0.50;;;;;;;22.81;49.29;100365.59;5062963;28;20498;-73
2022/07/27 06:15:33;;;;;;;0.70;0.70;;;;;;;22.77;49.33;100368.22;5062481;28;20486;-74
2022/07/27 06:17:59;;;;;;;1.80;0.77;;;;;;;22.74;49.54;100366.94;5068917;28;20424;-73
2022/07/27 06:20:24;;;;;;;1.52;0.50;;;;;;;22.75;49.59;100374.06;5063215;28;20484;-74
2022/07/27 06:22:51;;;;;;;0.67;0.63;;;;;;;22.67;49.98;100385.94;5060614;28;20408;-73
2022/07/27 06:25:18;;;;;;;1.80;0.63;;;;;;;22.64;49.92;100378.28;5061695;28;20675;-73
2022/07/27 06:27:44;;;;;;;2.25;0.80;;;;;;;22.62;49.99;100382.53;5035085;28;20954;-73
2022/07/27 06:30:12;;;;;;;1.30;0.65;;;;;;;22.68;50.23;100378.47;5060600;28;20413;-73
2022/07/27 06:32:37;;;;;;;1.85;0.55;;;;;;;22.73;49.92;100387.41;5061511;28;20411;-75
2022/07/27 06:35:03;;;;;;;0.70;0.60;;;;;;;22.77;49.80;100384.78;5062617;28;20423;-73
2022/07/27 06:37:30;;;;;;;0.70;0.70;;;;;;;22.71;49.98;100386.09;5063333;28;20423;-73
2022/07/27 06:39:59;;;;;;;1.67;0.50;;;;;;;22.68;50.30;100387.59;5063341;28;20402;-73
2022/07/27 06:42:25;;;;;;;3.28;0.70;;;;;;;22.65;50.60;100388.22;5063040;28;20416;-73
2022/07/27 06:44:51;;;;;;;2.57;0.70;;;;;;;22.56;50.80;100381.84;5062302;28;20403;-74
2022/07/27 06:47:16;;;;;;;0.80;0.40;;;;;;;22.58;50.66;100379.59;5065169;28;20407;-73
2022/07/27 06:49:41;;;;;;;1.50;0.63;;;;;;;22.58;50.57;100382.34;5064932;28;20398;-73
2022/07/27 06:52:06;;;;;;;0.70;0.30;;;;;;;22.57;50.57;100386.25;5056158;28;20406;-73
2022/07/27 06:54:32;;;;;;;2.40;0.70;;;;;;;22.59;50.85;100378.44;5089388;28;20397;-73
2022/07/27 06:56:57;;;;;;;1.45;0.70;;;;;;;22.65;50.69;100379.09;5051204;28;20492;-73
2022/07/27 06:59:22;;;;;;;2.10;0.47;;;;;;;22.70;50.51;100376.19;5069211;28;20426;-73
2022/07/27 07:01:48;;;;;;;1.23;0.60;;;;;;;22.77;50.47;100379.25;5067349;28;20403;-73
2022/07/27 07:04:13;;;;;;;2.23;1.03;;;;;;;22.85;49.88;100383.97;5066282;28;20786;-73
2022/07/27 07:06:38;;;;;;;0.70;0.60;;;;;;;22.96;49.41;100395.47;5050806;28;20403;-73
2022/07/27 07:09:04;;;;;;;1.13;0.67;;;;;;;23.04;49.18;100387.19;5066114;28;20435;-73
2022/07/27 07:11:29;;;;;;;2.53;0.57;;;;;;;23.07;48.92;100394.00;5049636;28;20456;-73
2022/07/27 07:13:54;;;;;;;0.77;0.57;;;;;;;23.14;48.87;100395.13;5044076;28;21086;-73
2022/07/27 07:16:20;;;;;;;6.37;0.80;;;;;;;23.21;48.36;100403.72;5081668;28;20424;-73
2022/07/27 07:18:45;;;;;;;1.58;0.65;;;;;;;23.27;48.36;100394.09;5077132;28;20409;-73
2022/07/27 07:21:10;;;;;;;1.47;0.50;;;;;;;23.35;48.15;100395.19;5068158;28;20406;-73
2022/07/27 07:23:36;;;;;;;1.30;0.40;;;;;;;23.40;47.66;100397.81;5049240;28;20461;-73
2022/07/27 07:26:01;;;;;;;1.30;0.57;;;;;;;23.36;47.93;100399.59;5066378;28;20399;-74
2022/07/27 07:28:26;;;;;;;0.50;0.50;;;;;;;23.46;47.79;100393.72;5066597;28;20406;-73
2022/07/27 07:30:51;;;;;;;0.40;0.40;;;;;;;23.63;47.65;100398.34;5067019;28;20403;-73
2022/07/27 07:33:17;;;;;;;0.77;0.43;;;;;;;23.76;47.44;100395.34;5049839;28;20450;-74
2022/07/27 07:35:42;;;;;;;2.00;0.50;;;;;;;23.77;47.20;100394.22;5065236;28;20464;-73
2022/07/27 07:38:08;;;;;;;1.40;0.40;;;;;;;23.76;47.17;100397.31;5083408;28;20424;-73
2022/07/27 07:40:33;;;;;;;1.10;0.50;;;;;;;23.74;47.54;100389.31;5049938;28;20475;-73
2022/07/27 07:43:01;;;;;;;1.57;0.50;;;;;;;23.71;47.67;100391.97;5066218;28;20458;-73
2022/07/27 07:45:28;;;;;;;2.40;0.70;;;;;;;23.60;47.81;100390.72;5046982;28;20411;-73
2022/07/27 07:47:54;;;;;;;1.85;0.55;;;;;;;23.60;47.58;100387.97;5067109;28;20433;-73
2022/07/27 07:50:21;;;;;;;1.80;0.60;;;;;;;23.54;48.27;100389.28;5081116;28;20502;-73
2022/07/27 07:52:47;;;;;;;3.10;0.85;;;;;;;23.51;48.19;100378.91;5074245;28;20406;-73
2022/07/27 07:55:13;;;;;;;1.08;0.52;;;;;;;23.57;48.32;100385.88;5069265;28;20886;-74
2022/07/27 07:57:38;;;;;;;1.67;0.50;;;;;;;23.62;48.19;100380.13;5064220;28;20420;-73
2022/07/27 08:00:06;;;;;;;3.17;0.80;;;;;;;23.68;47.62;100385.13;5072282;28;20435;-73
2022/07/27 08:02:31;;;;;;;2.17;0.70;;;;;;;23.67;47.55;100386.31;5071053;28;20444;-73
2022/07/27 08:04:57;;;;;;;2.40;0.40;;;;;;;23.62;47.70;100380.13;5065077;28;20428;-73
2022/07/27 08:07:22;;;;;;;3.80;1.00;;;;;;;23.62;47.79;100380.94;5067776;28;20815;-74
2022/07/27 08:09:47;;;;;;;2.53;0.40;;;;;;;23.65;47.73;100382.22;5065729;28;20978;-73
2022/07/27 08:12:13;;;;;;;1.43;0.70;;;;;;;23.65;47.74;100382.22;5065503;28;20419;-73
2022/07/27 08:14:38;;;;;;;1.53;0.50;;;;;;;23.66;47.63;100384.66;5065554;28;20406;-73
2022/07/27 08:17:03;;;;;;;1.80;0.73;;;;;;;23.77;47.81;100379.56;5065476;28;20965;-73
2022/07/27 08:19:28;;;;;;;2.00;0.63;;;;;;;23.87;47.80;100383.91;5066023;28;20411;-73
2022/07/27 08:21:54;;;;;;;4.13;0.83;;;;;;;23.95;47.74;100381.06;5066109;28;20408;-73
2022/07/27 08:24:19;;;;;;;1.70;0.70;;;;;;;24.04;47.57;100383.78;5065357;28;20411;-73
2022/07/27 08:26:44;;;;;;;3.47;0.77;;;;;;;24.08;47.76;100387.50;5064804;28;20502;-73
2022/07/27 08:29:10;;;;;;;2.50;0.60;;;;;;;24.12;47.41;100388.47;5065759;28;20515;-73
2022/07/27 08:31:35;;;;;;;1.63;0.85;;;;;;;24.08;47.16;100390.25;5065335;28;20416;-73
2022/07/27 08:34:01;;;;;;;1.30;0.50;;;;;;;24.14;46.95;100388.94;5065300;28;20415;-73
2022/07/27 08:36:27;;;;;;;0.63;0.63;;;;;;;24.35;46.36;100391.72;5064835;28;20435;-73
2022/07/27 08:38:52;;;;;;;2.20;1.20;;;;;;;24.43;45.42;100388.91;5066067;28;20809;-73
2022/07/27 08:41:19;;;;;;;1.53;0.70;;;;;;;24.42;45.57;100384.50;5065750;28;20489;-73
2022/07/27 08:43:47;;;;;;;3.35;0.77;;;;;;;24.51;45.22;100389.94;5065638;28;20412;-73
2022/07/27 08:46:17;;;;;;;0.97;0.53;;;;;;;24.52;44.97;100388.81;5073920;28;20752;-73
2022/07/27 08:48:42;;;;;;;1.90;0.60;;;;;;;24.50;45.04;100391.91;5065654;28;20890;-73
2022/07/27 08:51:08;;;;;;;1.80;0.60;;;;;;;24.54;45.04;100392.84;5064572;28;20432;-74
2022/07/27 08:53:34;;;;;;;2.38;0.80;;;;;;;24.57;45.43;100389.41;5067924;28;20415;-74
2022/07/27 08:56:00;;;;;;;1.10;0.77;;;;;;;24.61;45.45;100392.31;5064273;28;20415;-73
2022/07/27 08:58:26;;;;;;;0.90;0.52;;;;;;;24.65;45.71;100388.53;5065319;28;20878;-73
2022/07/27 09:00:51;;;;;;;2.58;0.65;;;;;;;24.69;45.33;100388.66;5063474;28;20410;-74
2022/07/27 09:03:19;;;;;;;0.87;0.60;;;;;;;24.69;45.21;100386.72;5047973;28;20763;-73
2022/07/27 09:05:48;;;;;;;0.70;0.50;;;;;;;24.71;45.61;100400.19;5064864;28;20906;-74
2022/07/27 09:08:26;;;;;;;2.22;0.88;;;;;;;24.61;45.56;100398.66;5067495;28;20507;-73
2022/07/27 09:10:53;;;;;;;0.90;0.63;;;;;;;24.66;45.84;100400.44;5064368;28;20793;-73
2022/07/27 09:13:19;;;;;;;2.70;0.70;;;;;;;24.94;45.37;100390.38;5065056;28;20408;-74
2022/07/27 09:15:50;;;;;;;2.53;0.70;;;;;;;25.24;44.97;100399.34;5062877;28;20490;-74
2022/07/27 09:18:25;;;;;;;2.30;0.90;;;;;;;25.43;44.21;100387.69;5023893;28;20761;-73
2022/07/27 09:21:19;;;;;;;1.93;1.30;;;;;;;25.68;43.69;100398.50;5063082;28;20399;-74
2022/07/27 09:23:54;;;;;;;2.65;0.70;;;;;;;25.86;43.32;100389.91;5064557;28;20413;-74
2022/07/27 09:26:25;;;;;;;1.50;0.50;;;;;;;26.01;42.97;100389.22;5064809;28;20408;-74
2022/07/27 09:28:56;;;;;;;3.78;0.60;;;;;;;26.10;42.46;100385.16;5072252;28;20414;-74
2022/07/27 09:31:21;;;;;;;5.80;1.13;;;;;;;26.17;42.47;100392.91;5082891;28;20404;-74
2022/07/27 09:33:49;;;;;;;2.42;0.60;;;;;;;26.38;42.06;100396.31;5062240;28;20423;-74
2022/07/27 09:36:16;;;;;;;2.30;0.80;;;;;;;26.48;41.36;100384.72;5063313;28;20494;-74
2022/07/27 09:38:55;;;;;;;3.45;0.63;;;;;;;26.67;41.14;100387.66;5064208;28;20404;-74
2022/07/27 09:41:22;;;;;;;2.30;0.60;;;;;;;27.00;40.28;100392.97;5076242;28;20465;-76
2022/07/27 09:43:55;;;;;;;2.03;0.57;;;;;;;27.33;39.56;100390.66;5063413;28;20407;-76
2022/07/27 09:46:35;;;;;;;1.33;0.70;;;;;;;27.80;38.83;100396.22;5063097;28;20408;-78
2022/07/27 09:49:01;;;;;;;2.00;0.77;;;;;;;27.72;38.93;100397.25;5064024;28;20490;-76
2022/07/27 09:51:29;;;;;;;3.40;0.60;;;;;;;27.75;38.83;100404.06;5062323;28;21005;-76
2022/07/27 09:53:58;;;;;;;1.20;0.60;;;;;;;27.37;39.00;100398.31;5068736;28;20759;-77
2022/07/27 09:56:29;;;;;;;1.15;0.70;;;;;;;27.00;39.84;100400.50;5044033;28;20919;-76
2022/07/27 09:58:59;;;;;;;1.65;0.50;;;;;;;26.98;40.01;100400.84;5062001;28;20498;-76
2022/07/27 10:01:31;;;;;;;2.20;0.70;;;;;;;27.91;37.93;100404.84;5064253;28;20411;-75
2022/07/27 10:04:06;;;;;;;2.78;0.60;;;;;;;28.59;37.14;100401.56;5062608;28;20411;-76
2022/07/27 10:06:31;;;;;;;1.17;0.80;;;;;;;29.12;35.60;100414.63;5063654;28;20399;-77
2022/07/27 10:08:58;;;;;;;0.87;0.47;;;;;;;28.71;36.09;100409.84;5063973;28;20411;-76
2022/07/27 10:11:24;;;;;;;1.90;0.60;;;;;;;28.09;37.15;100410.84;5063720;28;20430;-76
2022/07/27 10:13:51;;;;;;;3.67;0.68;;;;;;;27.61;38.02;100409.28;5064199;28;20495;-76
2022/07/27 10:16:25;;;;;;;2.08;0.95;;;;;;;27.44;38.31;100406.84;5062132;28;20473;-76
2022/07/27 10:19:12;;;;;;;2.03;0.70;;;;;;;28.38;36.99;100410.31;5045650;28;20552;-76
2022/07/27 10:21:42;;;;;;;2.33;0.60;;;;;;;30.41;33.88;100404.38;5076222;28;20867;-76
2022/07/27 10:24:10;;;;;;;1.33;0.50;;;;;;;31.99;30.88;100408.00;5062367;28;20502;-74
2022/07/27 10:26:41;;;;;;;0.80;0.47;;;;;;;33.34;28.58;100406.59;5062474;28;20408;-77
2022/07/27 10:29:12;;;;;;;1.90;0.60;;;;;;;34.33;27.31;100418.63;5062099;28;20399;-77
2022/07/27 10:31:40;;;;;;;1.52;0.63;;;;;;;35.06;25.33;100404.63;5062465;28;20403;-76
2022/07/27 10:34:13;;;;;;;1.52;0.70;;;;;;;35.55;24.67;100413.97;5060589;28;20414;-75
2022/07/27 10:36:53;;;;;;;1.98;1.00;;;;;;;36.08;23.95;100405.88;5061533;28;20431;-75
2022/07/27 10:39:32;;;;;;;4.90;0.70;;;;;;;36.82;22.90;100407.81;5051192;28;21501;-75
2022/07/27 10:42:18;;;;;;;3.00;0.75;;;;;;;37.00;23.16;100407.59;5075255;28;20410;-75
2022/07/27 10:44:53;;;;;;;1.73;0.90;;;;;;;37.59;22.12;100409.94;5062107;28;20400;-76
2022/07/27 10:47:33;;;;;;;2.00;0.60;;;;;;;37.73;21.62;100413.31;5071986;28;20417;-76
2022/07/27 10:50:19;;;;;;;2.45;0.70;;;;;;;37.88;21.42;100402.53;5074259;28;20442;-76
2022/07/27 10:52:53;;;;;;;0.80;0.50;;;;;;;37.58;21.78;100411.16;5073990;28;20475;-75
2022/07/27 10:55:35;;;;;;;2.73;0.60;;;;;;;37.98;21.39;100406.44;5078720;28;20417;-75
2022/07/27 10:58:09;;;;;;;1.70;0.40;;;;;;;38.49;20.93;100405.88;5050037;28;20977;-76
2022/07/27 11:00:49;;;;;;;1.45;0.40;;;;;;;38.44;20.71;100403.53;5077639;28;20406;-76
2022/07/27 11:03:25;;;;;;;1.55;0.40;;;;;;;38.75;20.43;100395.59;5081180;28;20406;-76
2022/07/27 11:05:54;;;;;;;3.47;0.60;;;;;;;38.98;20.09;100404.00;5071574;28;20414;-77
2022/07/27 11:08:28;;;;;;;1.55;0.40;;;;;;;37.89;21.02;100401.31;5087946;28;20525;-75
2022/07/27 11:10:53;;;;;;;2.10;0.77;;;;;;;37.56;21.60;100391.00;5086521;28;20441;-77
2022/07/27 11:13:20;;;;;;;1.90;0.60;;;;;;;38.47;21.16;100399.81;5060660;28;20932;-78
2022/07/27 11:15:59;;;;;;;1.77;0.70;;;;;;;39.16;20.16;100404.38;5079636;28;20400;-76
2022/07/27 11:18:25;;;;;;;3.40;0.43;;;;;;;39.49;19.70;100401.63;5081911;28;20835;-76
2022/07/27 11:20:50;;;;;;;1.30;0.70;;;;;;;39.30;19.37;100397.59;5079417;28;20401;-76
2022/07/27 11:23:20;;;;;;;2.97;0.53;;;;;;;39.55;19.85;100405.50;5079866;28;20410;-76
2022/07/27 11:25:59;;;;;;;3.47;0.70;;;;;;;39.74;19.15;100399.75;5054492;28;20414;-76
2022/07/27 11:28:32;;;;;;;1.23;0.60;;;;;;;39.85;18.99;100388.09;5089470;28;20420;-76